Time;durP1;ratioP1;P1;durP2;ratioP2;P2;SDS_P1;SDS_P2;PMS_P1;PMS_P2;Temp;Humidity;BMP_temperature;BMP_pressure;BME280_temperature;BME280_humidity;BME280_pressure;Samples;Min_cycle;Max_cycle;Signal;HPM_P1;HPM_P2
2022/09/15 00:01:39;;;;;;;8.07;7.13;;;17.80;80.40;;;;;;4923837;29;20530;-66
2022/09/15 00:04:05;;;;;;;9.10;6.93;;;17.80;80.20;;;;;;4917300;29;20043;-66
2022/09/15 00:06:31;;;;;;;7.18;6.38;;;17.80;80.10;;;;;;4919820;29;20132;-66
2022/09/15 00:08:58;;;;;;;7.50;6.20;;;17.80;80.10;;;;;;4921636;29;20039;-66
2022/09/15 00:11:27;;;;;;;7.22;6.30;;;17.80;80.20;;;;;;4914675;29;20388;-66
2022/09/15 00:13:53;;;;;;;8.90;7.38;;;17.70;80.10;;;;;;4915995;29;20031;-66
2022/09/15 00:16:22;;;;;;;8.32;7.00;;;17.70;80.10;;;;;;4917690;29;20031;-67
2022/09/15 00:18:48;;;;;;;8.55;6.68;;;17.80;80.20;;;;;;4912390;29;20412;-66
2022/09/15 00:21:20;;;;;;;7.25;6.45;;;17.80;80.20;;;;;;4916283;29;20039;-67
2022/09/15 00:23:47;;;;;;;8.32;7.07;;;17.70;80.20;;;;;;4916315;29;20507;-67
2022/09/15 00:26:16;;;;;;;6.15;5.40;;;17.70;80.20;;;;;;4915403;29;20036;-66
2022/09/15 00:28:42;;;;;;;7.45;5.03;;;17.70;80.20;;;;;;4913189;29;20047;-67
2022/09/15 00:31:11;;;;;;;5.85;4.63;;;17.70;80.20;;;;;;4913800;29;20032;-66
2022/09/15 00:33:37;;;;;;;6.95;5.15;;;17.70;80.10;;;;;;4915992;29;20051;-67
2022/09/15 00:36:05;;;;;;;5.03;4.28;;;17.70;80.10;;;;;;4911679;29;20024;-66
2022/09/15 00:38:31;;;;;;;5.15;4.38;;;17.60;79.90;;;;;;4912956;29;20385;-66
2022/09/15 00:40:58;;;;;;;5.53;4.75;;;17.70;80.00;;;;;;4914453;29;20120;-67
2022/09/15 00:43:55;;;;;;;7.03;5.05;;;17.60;80.00;;;;;;4912365;29;20488;-67
2022/09/15 00:46:30;;;;;;;7.05;4.95;;;17.50;80.00;;;;;;4911755;29;20032;-66
2022/09/15 00:49:08;;;;;;;6.20;5.00;;;17.50;80.00;;;;;;4913765;29;20028;-66
2022/09/15 00:51:45;;;;;;;5.45;4.65;;;17.50;80.10;;;;;;4910922;29;20028;-66
2022/09/15 00:54:17;;;;;;;7.30;5.32;;;17.40;80.20;;;;;;4912684;29;20063;-66
2022/09/15 00:56:46;;;;;;;5.82;5.22;;;17.40;80.50;;;;;;4913420;29;20092;-66
2022/09/15 00:59:16;;;;;;;6.82;4.85;;;17.40;80.60;;;;;;4913576;29;20484;-66
2022/09/15 01:01:44;;;;;;;6.82;4.63;;;17.40;80.60;;;;;;4915747;29;20032;-66
2022/09/15 01:04:11;;;;;;;6.30;5.03;;;17.40;80.70;;;;;;4917282;29;20115;-67
2022/09/15 01:06:42;;;;;;;7.00;5.63;;;17.40;80.60;;;;;;4914848;29;20443;-66
2022/09/15 01:09:14;;;;;;;6.13;4.88;;;17.40;80.50;;;;;;4913701;29;20032;-66
2022/09/15 01:11:41;;;;;;;8.20;5.40;;;17.40;80.70;;;;;;4919266;29;20055;-66
2022/09/15 01:14:07;;;;;;;6.38;5.10;;;17.30;80.70;;;;;;4921064;29;20024;-67
2022/09/15 01:17:02;;;;;;;6.22;5.03;;;17.30;80.70;;;;;;4915072;29;20028;-66
2022/09/15 01:20:02;;;;;;;6.25;4.93;;;17.30;80.70;;;;;;4913333;29;20039;-66
2022/09/15 01:22:49;;;;;;;6.35;5.25;;;17.30;80.70;;;;;;4910748;29;20111;-67
2022/09/15 01:25:47;;;;;;;6.90;4.32;;;17.30;81.20;;;;;;4912160;29;20488;-66
2022/09/15 01:28:46;;;;;;;5.43;4.00;;;17.30;80.80;;;;;;4910056;29;20052;-66
2022/09/15 01:31:23;;;;;;;6.90;4.60;;;17.30;80.80;;;;;;4916210;29;20032;-66
2022/09/15 01:34:14;;;;;;;7.18;4.20;;;17.20;80.80;;;;;;4914396;29;20396;-67
2022/09/15 01:36:49;;;;;;;5.88;4.50;;;17.20;80.80;;;;;;4913679;29;20032;-66
2022/09/15 01:39:23;;;;;;;6.50;4.95;;;17.20;81.00;;;;;;4913513;29;20028;-66
2022/09/15 01:42:01;;;;;;;5.65;4.22;;;17.20;81.00;;;;;;4913974;29;20029;-66
2022/09/15 01:45:15;;;;;;;6.53;4.68;;;17.20;81.20;;;;;;4913876;29;20039;-66
2022/09/15 01:47:40;;;;;;;5.70;4.47;;;17.10;80.90;;;;;;4906535;29;20043;-66
2022/09/15 01:50:14;;;;;;;5.93;4.53;;;17.20;81.00;;;;;;4910545;29;20476;-66
2022/09/15 01:52:47;;;;;;;6.20;4.80;;;17.10;80.90;;;;;;4903586;29;20067;-66
2022/09/15 01:55:21;;;;;;;5.70;4.75;;;17.10;80.90;;;;;;4914604;29;20037;-66
2022/09/15 01:57:47;;;;;;;9.52;6.97;;;17.10;80.80;;;;;;4910608;29;20032;-66
2022/09/15 02:00:13;;;;;;;17.00;12.73;;;17.10;80.80;;;;;;4912364;29;20399;-67
2022/09/15 02:02:54;;;;;;;15.25;12.00;;;17.10;80.80;;;;;;4913873;29;20480;-66
2022/09/15 02:05:19;;;;;;;15.02;12.43;;;17.10;80.70;;;;;;4920254;29;20044;-67
2022/09/15 02:08:03;;;;;;;18.50;14.77;;;17.10;80.70;;;;;;4914106;29;20420;-66
2022/09/15 02:10:54;;;;;;;14.10;11.50;;;17.10;80.50;;;;;;4916576;29;20439;-66
2022/09/15 02:13:38;;;;;;;11.55;9.88;;;17.10;80.40;;;;;;4908183;29;20447;-66
2022/09/15 02:16:12;;;;;;;9.25;6.82;;;17.10;80.40;;;;;;4915444;29;20028;-67
2022/09/15 02:18:46;;;;;;;6.95;5.60;;;17.10;80.40;;;;;;4913052;29;20028;-67
2022/09/15 02:21:17;;;;;;;7.07;4.85;;;17.10;80.20;;;;;;4913098;29;20028;-66
2022/09/15 02:23:49;;;;;;;6.35;4.75;;;17.00;80.10;;;;;;4915975;29;20024;-66
2022/09/15 02:26:18;;;;;;;6.85;4.30;;;17.00;80.10;;;;;;4913872;29;20103;-67
2022/09/15 02:28:46;;;;;;;5.10;4.10;;;17.00;80.20;;;;;;4906672;29;20024;-66
2022/09/15 02:31:15;;;;;;;4.93;4.03;;;17.00;80.20;;;;;;4913200;29;20040;-66
2022/09/15 02:33:46;;;;;;;4.47;3.90;;;17.00;80.30;;;;;;4909609;29;20115;-66
2022/09/15 02:36:15;;;;;;;4.70;3.80;;;17.00;80.10;;;;;;4914234;29;20349;-67
2022/09/15 02:38:45;;;;;;;5.88;3.70;;;17.00;80.10;;;;;;4912803;29;20083;-66
2022/09/15 02:41:13;;;;;;;4.53;3.83;;;17.00;80.20;;;;;;4914799;29;20024;-67
2022/09/15 02:43:48;;;;;;;4.00;3.50;;;17.00;80.10;;;;;;4918177;29;20028;-67
2022/09/15 02:46:19;;;;;;;6.20;3.80;;;17.00;80.00;;;;;;4916883;29;20048;-67
2022/09/15 02:48:44;;;;;;;4.43;3.78;;;16.90;80.00;;;;;;4917293;29;20058;-67
2022/09/15 02:51:10;;;;;;;5.25;4.05;;;16.90;80.00;;;;;;4912724;29;20076;-67
2022/09/15 02:53:36;;;;;;;5.22;3.95;;;16.90;80.10;;;;;;4914542;29;20028;-67
2022/09/15 02:56:05;;;;;;;5.15;3.75;;;16.90;80.10;;;;;;4920211;29;20505;-66
2022/09/15 02:58:32;;;;;;;5.65;4.30;;;17.00;80.10;;;;;;4914685;29;20056;-66
2022/09/15 03:01:02;;;;;;;4.55;3.95;;;16.90;80.10;;;;;;4916447;29;20036;-67
2022/09/15 03:03:28;;;;;;;5.78;3.95;;;16.90;80.00;;;;;;4917993;29;20377;-67
2022/09/15 03:06:15;;;;;;;4.63;3.78;;;17.00;80.10;;;;;;4915688;29;20068;-67
2022/09/15 03:08:40;;;;;;;6.18;4.50;;;17.00;80.00;;;;;;4909523;29;20440;-66
2022/09/15 03:11:06;;;;;;;6.30;5.03;;;17.00;80.20;;;;;;4914887;29;20044;-67
2022/09/15 03:13:32;;;;;;;5.50;4.00;;;17.00;80.00;;;;;;4912391;29;20080;-66
2022/09/15 03:15:58;;;;;;;6.82;4.93;;;17.00;79.90;;;;;;4918393;29;20429;-66
2022/09/15 03:18:23;;;;;;;6.35;4.30;;;17.00;79.80;;;;;;4916696;29;20024;-67
2022/09/15 03:20:54;;;;;;;6.18;4.60;;;17.00;79.70;;;;;;4917125;29;20040;-66
2022/09/15 03:23:20;;;;;;;6.40;4.95;;;17.00;79.70;;;;;;4918733;29;20042;-66
2022/09/15 03:25:46;;;;;;;5.68;4.28;;;17.00;79.70;;;;;;4917411;29;20024;-67
2022/09/15 03:28:11;;;;;;;8.27;4.75;;;17.00;79.70;;;;;;4929414;29;20083;-67
2022/09/15 03:30:37;;;;;;;5.38;4.32;;;17.00;79.80;;;;;;4915685;29;20039;-66
2022/09/15 03:33:02;;;;;;;5.88;4.50;;;17.00;79.80;;;;;;4916443;29;20039;-67
2022/09/15 03:35:28;;;;;;;5.60;4.18;;;17.00;79.70;;;;;;4916462;29;20387;-67
2022/09/15 03:37:53;;;;;;;4.65;3.92;;;17.00;79.70;;;;;;4915853;29;20054;-66
2022/09/15 03:40:19;;;;;;;5.00;3.92;;;17.00;79.70;;;;;;4916776;29;20468;-67
2022/09/15 03:42:45;;;;;;;5.30;4.07;;;17.10;79.80;;;;;;4915453;29;20043;-66
2022/09/15 03:45:10;;;;;;;4.88;3.72;;;17.10;79.80;;;;;;4915034;29;20487;-67
2022/09/15 03:47:36;;;;;;;4.85;3.90;;;17.10;79.70;;;;;;4916446;29;20084;-66
2022/09/15 03:50:02;;;;;;;4.68;3.80;;;17.20;79.80;;;;;;4921382;29;20441;-66
2022/09/15 03:52:30;;;;;;;6.88;4.20;;;17.20;79.80;;;;;;4914003;29;20032;-67
2022/09/15 03:54:56;;;;;;;5.80;3.95;;;17.20;79.70;;;;;;4914303;29;20040;-66
2022/09/15 03:57:22;;;;;;;6.47;4.03;;;17.20;79.60;;;;;;4914672;29;20619;-67
2022/09/15 03:59:47;;;;;;;5.57;4.25;;;17.30;79.60;;;;;;4916338;29;20032;-67
2022/09/15 04:02:13;;;;;;;5.18;4.00;;;17.30;79.30;;;;;;4897334;29;20039;-67
2022/09/15 04:04:39;;;;;;;5.10;3.78;;;17.20;79.20;;;;;;4919166;29;20071;-67
2022/09/15 04:07:05;;;;;;;4.88;4.00;;;17.30;79.20;;;;;;4921431;29;20034;-66
2022/09/15 04:09:30;;;;;;;4.53;3.80;;;17.20;79.20;;;;;;4917216;29;20399;-67
2022/09/15 04:11:56;;;;;;;5.65;4.15;;;17.30;79.40;;;;;;4915262;29;20111;-66
2022/09/15 04:14:21;;;;;;;4.80;3.95;;;17.30;79.50;;;;;;4913359;29;20038;-66
2022/09/15 04:16:47;;;;;;;5.15;3.97;;;17.30;79.50;;;;;;4914542;29;20029;-67
2022/09/15 04:19:13;;;;;;;5.47;4.22;;;17.30;79.10;;;;;;4910960;29;20080;-67
2022/09/15 04:21:38;;;;;;;6.80;4.03;;;17.20;78.90;;;;;;4916207;29;20039;-67
2022/09/15 04:24:04;;;;;;;5.43;4.30;;;17.20;78.90;;;;;;4921477;29;20032;-67
2022/09/15 04:26:33;;;;;;;6.47;5.30;;;17.20;79.00;;;;;;4915954;29;20448;-66
2022/09/15 04:28:59;;;;;;;7.90;5.20;;;17.20;78.80;;;;;;4918322;29;20080;-66
2022/09/15 04:31:25;;;;;;;5.25;4.38;;;17.10;78.90;;;;;;4912855;29;20675;-66
2022/09/15 04:33:52;;;;;;;5.28;4.38;;;17.10;79.00;;;;;;4914031;29;20079;-66
2022/09/15 04:36:20;;;;;;;6.32;5.10;;;17.10;79.20;;;;;;4915885;29;20024;-66
2022/09/15 04:38:46;;;;;;;7.60;5.10;;;17.10;79.20;;;;;;4914157;29;20079;-66
2022/09/15 04:41:13;;;;;;;6.78;5.25;;;17.10;79.40;;;;;;4911062;29;20028;-66
2022/09/15 04:43:40;;;;;;;7.85;5.43;;;17.20;79.40;;;;;;4915012;29;20573;-66
2022/09/15 04:46:06;;;;;;;6.22;4.63;;;17.20;79.50;;;;;;4915975;29;20024;-66
2022/09/15 04:48:32;;;;;;;7.75;5.72;;;17.20;79.70;;;;;;4917499;29;20039;-66
2022/09/15 04:51:02;;;;;;;6.45;5.15;;;17.20;79.70;;;;;;4909650;29;20032;-66
2022/09/15 04:53:28;;;;;;;6.57;4.90;;;17.20;79.80;;;;;;4896327;29;20095;-66
2022/09/15 04:56:01;;;;;;;9.75;5.78;;;17.30;79.70;;;;;;4902298;29;20056;-66
2022/09/15 04:58:26;;;;;;;15.73;9.55;;;17.30;79.80;;;;;;4914794;29;20035;-67
2022/09/15 05:00:52;;;;;;;17.95;10.38;;;17.30;79.90;;;;;;4914701;29;20036;-66
2022/09/15 05:03:17;;;;;;;19.00;10.75;;;17.40;80.00;;;;;;4914426;29;20480;-67
2022/09/15 05:05:43;;;;;;;18.27;10.63;;;17.40;79.90;;;;;;4914491;29;20036;-67
2022/09/15 05:08:09;;;;;;;16.38;10.27;;;17.40;79.90;;;;;;4908663;29;20028;-67
2022/09/15 05:10:37;;;;;;;17.55;10.35;;;17.40;80.00;;;;;;4918596;29;20123;-66
2022/09/15 05:13:02;;;;;;;18.38;11.07;;;17.50;80.10;;;;;;4914590;29;20016;-66
2022/09/15 05:15:28;;;;;;;14.38;9.70;;;17.50;80.10;;;;;;4920611;29;20036;-67
2022/09/15 05:17:53;;;;;;;11.45;7.88;;;17.50;80.10;;;;;;4912818;29;20384;-66
2022/09/15 05:20:19;;;;;;;12.07;8.13;;;17.60;80.10;;;;;;4911073;29;20066;-66
2022/09/15 05:22:45;;;;;;;8.15;5.93;;;17.60;80.00;;;;;;4914110;29;20028;-67
2022/09/15 05:25:10;;;;;;;6.95;5.30;;;17.60;79.90;;;;;;4914323;29;20488;-67
2022/09/15 05:27:38;;;;;;;5.95;4.32;;;17.70;79.60;;;;;;4912947;29;20041;-67
2022/09/15 05:30:04;;;;;;;4.82;3.70;;;17.70;79.40;;;;;;4916927;29;20163;-67
2022/09/15 05:32:30;;;;;;;5.30;3.83;;;17.70;79.30;;;;;;4906095;29;20123;-65
2022/09/15 05:34:57;;;;;;;4.03;3.63;;;17.70;79.30;;;;;;4901420;29;20480;-67
2022/09/15 05:37:23;;;;;;;5.03;3.90;;;17.70;79.20;;;;;;4906250;29;20047;-66
2022/09/15 05:39:48;;;;;;;4.18;3.50;;;17.70;79.00;;;;;;4909740;29;20040;-66
2022/09/15 05:42:14;;;;;;;4.13;3.55;;;17.80;79.00;;;;;;4902767;29;20506;-65
2022/09/15 05:44:41;;;;;;;4.20;3.65;;;17.80;79.00;;;;;;4900817;29;20111;-66
2022/09/15 05:47:06;;;;;;;4.40;3.50;;;17.80;79.00;;;;;;4900443;29;20036;-67
2022/09/15 05:49:32;;;;;;;4.97;3.88;;;17.80;79.10;;;;;;4894383;29;20040;-66
2022/09/15 05:51:58;;;;;;;4.25;3.47;;;17.80;79.10;;;;;;4902035;29;20071;-66
2022/09/15 05:54:26;;;;;;;4.40;4.00;;;17.90;79.10;;;;;;4908435;29;20484;-66
2022/09/15 05:56:51;;;;;;;3.95;3.55;;;17.90;79.00;;;;;;4906201;29;20087;-66
2022/09/15 05:59:17;;;;;;;4.72;3.70;;;17.90;79.00;;;;;;4902298;29;20039;-67
2022/09/15 06:01:43;;;;;;;4.53;3.47;;;17.90;78.90;;;;;;4901076;29;20033;-67
2022/09/15 06:04:08;;;;;;;4.18;3.50;;;18.00;78.90;;;;;;4897038;29;20028;-66
2022/09/15 06:06:34;;;;;;;4.35;3.55;;;18.00;79.00;;;;;;4885661;29;20063;-67
2022/09/15 06:09:00;;;;;;;5.88;3.83;;;18.00;79.00;;;;;;4901741;29;20036;-66
2022/09/15 06:11:28;;;;;;;5.47;4.50;;;18.00;78.80;;;;;;4897831;29;20119;-66
2022/09/15 06:13:54;;;;;;;4.70;4.15;;;18.00;78.60;;;;;;4895010;29;20032;-67
2022/09/15 06:16:23;;;;;;;5.00;4.07;;;18.00;78.60;;;;;;4876918;29;20067;-66
2022/09/15 06:18:50;;;;;;;5.00;4.18;;;18.00;78.40;;;;;;4886131;29;20032;-67
2022/09/15 06:21:22;;;;;;;5.47;4.20;;;18.00;78.60;;;;;;4880973;29;20040;-66
2022/09/15 06:23:53;;;;;;;4.20;3.60;;;18.00;78.60;;;;;;4896519;29;20774;-67
2022/09/15 06:26:19;;;;;;;5.15;4.45;;;18.00;78.50;;;;;;4880010;29;20469;-66
2022/09/15 06:28:59;;;;;;;5.78;4.32;;;18.00;78.80;;;;;;4901116;29;20063;-67
2022/09/15 06:31:27;;;;;;;4.78;4.28;;;18.00;78.50;;;;;;4897515;29;20504;-66
2022/09/15 06:33:56;;;;;;;4.65;3.90;;;18.00;78.60;;;;;;4898829;29;20476;-67
2022/09/15 06:36:26;;;;;;;4.32;3.92;;;18.00;78.70;;;;;;4902452;29;20381;-66
2022/09/15 06:38:52;;;;;;;4.93;3.95;;;18.00;78.90;;;;;;4895010;29;20473;-66
2022/09/15 06:41:17;;;;;;;4.40;4.00;;;18.00;78.90;;;;;;4897532;29;20040;-67
2022/09/15 06:43:47;;;;;;;5.43;3.83;;;18.00;79.00;;;;;;4894716;29;20044;-66
2022/09/15 06:46:17;;;;;;;5.15;4.03;;;18.00;78.80;;;;;;4895410;29;20032;-66
2022/09/15 06:48:43;;;;;;;4.80;4.13;;;18.10;78.80;;;;;;4892089;29;21694;-66
2022/09/15 06:51:11;;;;;;;5.32;4.53;;;18.10;79.00;;;;;;4886679;29;20107;-66
2022/09/15 06:53:38;;;;;;;5.75;4.47;;;18.10;78.80;;;;;;4887545;29;20028;-66
2022/09/15 06:56:09;;;;;;;7.13;4.00;;;18.00;78.60;;;;;;4897269;29;20121;-67
2022/09/15 06:58:36;;;;;;;5.65;4.65;;;18.00;78.80;;;;;;4889844;29;20031;-66
2022/09/15 07:01:07;;;;;;;4.90;4.10;;;18.00;79.00;;;;;;4890984;29;20083;-67
2022/09/15 07:03:33;;;;;;;;;;;18.00;78.90;;;;;;4889588;29;20496;-67
2022/09/15 07:05:58;;;;;;;6.05;3.67;;;18.00;79.10;;;;;;4888014;29;19926;-67
2022/09/15 07:08:25;;;;;;;5.28;4.30;;;18.00;79.20;;;;;;4888958;29;20083;-67
2022/09/15 07:10:52;;;;;;;5.78;4.40;;;18.10;79.30;;;;;;4889453;29;20067;-66
2022/09/15 07:13:17;;;;;;;6.82;4.63;;;18.10;79.40;;;;;;4884440;29;20043;-66
2022/09/15 07:15:54;;;;;;;6.07;4.50;;;18.10;79.40;;;;;;4867559;29;20100;-67
2022/09/15 07:18:21;;;;;;;5.88;4.90;;;18.20;79.30;;;;;;4881985;29;20036;-67
2022/09/15 07:20:46;;;;;;;5.80;4.63;;;18.20;79.30;;;;;;4878168;29;20124;-66
2022/09/15 07:23:12;;;;;;;6.22;5.07;;;18.30;79.10;;;;;;4884631;29;20040;-67
2022/09/15 07:25:44;;;;;;;7.43;6.13;;;18.30;78.90;;;;;;4888659;29;20450;-67
2022/09/15 07:28:13;;;;;;;6.65;5.30;;;18.30;78.80;;;;;;4881305;29;20150;-66
2022/09/15 07:30:39;;;;;;;6.15;4.93;;;18.30;78.80;;;;;;4874339;29;20036;-67
2022/09/15 07:33:11;;;;;;;6.50;5.10;;;18.40;78.80;;;;;;4880000;29;20025;-67
2022/09/15 07:35:42;;;;;;;;;;;18.40;78.90;;;;;;4888155;29;20024;-67
2022/09/15 07:38:08;;;;;;;6.10;5.35;;;18.40;79.00;;;;;;4883755;29;19919;-68
2022/09/15 07:40:34;;;;;;;6.13;5.13;;;18.40;79.10;;;;;;4882589;29;20448;-67
2022/09/15 07:42:59;;;;;;;7.68;5.70;;;18.40;79.00;;;;;;4885117;29;20039;-67
2022/09/15 07:45:25;;;;;;;7.95;6.18;;;18.40;78.70;;;;;;4887865;29;20063;-67
2022/09/15 07:47:51;;;;;;;8.38;6.03;;;18.50;78.50;;;;;;4879628;29;20054;-66
2022/09/15 07:50:16;;;;;;;8.73;5.97;;;18.50;78.60;;;;;;4882141;29;20059;-67
2022/09/15 07:52:42;;;;;;;8.93;5.72;;;18.50;78.60;;;;;;4882186;29;21741;-67
2022/09/15 07:55:08;;;;;;;6.53;5.20;;;18.50;78.60;;;;;;4895756;29;20641;-67
2022/09/15 07:57:34;;;;;;;7.57;6.20;;;18.50;78.60;;;;;;4898946;29;20027;-67
2022/09/15 08:00:00;;;;;;;7.35;6.15;;;18.60;78.70;;;;;;4908329;29;20035;-67
2022/09/15 08:02:25;;;;;;;7.65;5.10;;;18.60;78.60;;;;;;4904312;29;22068;-67
2022/09/15 08:04:52;;;;;;;6.20;4.90;;;18.60;78.70;;;;;;4910065;29;20039;-67
2022/09/15 08:07:18;;;;;;;4.70;4.13;;;18.60;78.60;;;;;;4907093;29;20461;-67
2022/09/15 08:09:43;;;;;;;5.35;4.22;;;18.60;78.50;;;;;;4904026;29;20127;-67
2022/09/15 08:12:09;;;;;;;4.60;3.70;;;18.60;78.80;;;;;;4914124;29;20036;-67
2022/09/15 08:14:36;;;;;;;4.90;4.05;;;18.60;79.00;;;;;;4909105;29;20039;-67
2022/09/15 08:17:03;;;;;;;5.53;3.67;;;18.50;79.10;;;;;;4906456;29;20024;-67
2022/09/15 08:19:31;;;;;;;5.65;4.22;;;18.50;79.10;;;;;;4905749;29;20028;-67
2022/09/15 08:21:57;;;;;;;4.70;3.45;;;18.50;79.30;;;;;;4911321;29;20474;-67
2022/09/15 08:24:23;;;;;;;4.82;4.32;;;18.50;79.40;;;;;;4900945;29;20036;-66
2022/09/15 08:26:49;;;;;;;6.18;4.18;;;18.50;79.70;;;;;;4900868;29;20064;-65
2022/09/15 08:29:16;;;;;;;6.47;4.20;;;18.60;79.90;;;;;;4901742;29;20102;-66
2022/09/15 08:31:43;;;;;;;6.50;4.40;;;18.50;80.10;;;;;;4903308;29;20547;-66
2022/09/15 08:34:11;;;;;;;5.45;4.47;;;18.60;80.80;;;;;;4896678;29;20028;-66
2022/09/15 08:36:38;;;;;;;5.03;4.53;;;18.60;80.30;;;;;;4902302;29;20024;-65
2022/09/15 08:39:04;;;;;;;5.95;4.38;;;18.60;80.50;;;;;;4902259;29;20143;-66
2022/09/15 08:41:50;;;;;;;5.03;4.18;;;18.60;80.60;;;;;;4899296;29;20032;-66
2022/09/15 08:44:28;;;;;;;5.10;4.40;;;18.60;80.40;;;;;;4901472;29;20023;-65
2022/09/15 08:47:13;;;;;;;5.82;4.97;;;18.70;80.50;;;;;;4904930;29;20044;-65
2022/09/15 08:49:57;;;;;;;5.50;4.05;;;18.70;80.30;;;;;;4899349;29;20080;-66
2022/09/15 08:52:38;;;;;;;5.88;4.65;;;18.70;80.20;;;;;;4901199;29;20031;-66
2022/09/15 08:55:10;;;;;;;;;;;18.70;80.00;;;;;;4910431;29;20510;-65
2022/09/15 08:57:37;;;;;;;4.75;3.70;;;18.70;80.30;;;;;;4886213;29;20061;-66
2022/09/15 09:00:03;;;;;;;4.85;4.20;;;18.70;80.00;;;;;;4898440;29;20094;-66
2022/09/15 09:02:46;;;;;;;7.25;5.10;;;18.60;80.10;;;;;;4903605;29;20802;-66
2022/09/15 09:05:33;;;;;;;5.63;5.07;;;18.60;80.30;;;;;;4899893;29;20032;-66
2022/09/15 09:08:04;;;;;;;6.70;4.78;;;18.60;80.60;;;;;;4904548;29;20043;-66
2022/09/15 09:11:14;;;;;;;6.45;4.93;;;18.60;80.70;;;;;;4910489;29;20036;-66
2022/09/15 09:13:53;;;;;;;5.53;4.30;;;18.70;80.90;;;;;;4825478;29;20513;-66
2022/09/15 09:16:43;;;;;;;5.32;4.30;;;18.70;81.20;;;;;;4827301;29;20151;-66
2022/09/15 09:19:49;;;;;;;5.85;5.20;;;18.70;80.90;;;;;;4884504;29;20463;-66
2022/09/15 09:22:23;;;;;;;4.90;3.97;;;18.70;80.90;;;;;;4901124;29;20031;-66
2022/09/15 09:24:52;;;;;;;4.97;4.43;;;18.80;81.00;;;;;;4897993;29;20933;-67
2022/09/15 09:27:22;;;;;;;5.10;4.57;;;18.80;81.00;;;;;;4898967;29;20075;-66
2022/09/15 09:29:59;;;;;;;5.15;4.50;;;18.80;81.00;;;;;;4904489;29;20031;-66
2022/09/15 09:32:31;;;;;;;5.63;4.35;;;18.80;81.00;;;;;;4905121;29;20040;-65
2022/09/15 09:35:21;;;;;;;5.05;4.38;;;18.80;80.90;;;;;;4905528;29;20556;-66
2022/09/15 09:37:49;;;;;;;5.10;4.43;;;18.80;80.90;;;;;;4905590;29;20110;-66
2022/09/15 09:40:16;;;;;;;6.85;5.10;;;18.70;81.00;;;;;;4890555;29;20056;-64
2022/09/15 09:42:43;;;;;;;6.93;5.78;;;18.70;81.10;;;;;;4901510;29;20031;-66
2022/09/15 09:45:15;;;;;;;7.78;6.57;;;18.70;81.20;;;;;;4884731;29;20032;-65
2022/09/15 09:47:41;;;;;;;7.80;6.90;;;18.70;81.30;;;;;;4898193;29;20042;-66
2022/09/15 09:50:44;;;;;;;6.88;6.00;;;18.70;82.00;;;;;;4904415;29;20845;-65
2022/09/15 09:53:30;;;;;;;6.70;6.00;;;18.70;81.30;;;;;;4893116;29;20038;-66
2022/09/15 09:56:23;;;;;;;8.45;6.07;;;18.60;81.20;;;;;;4877439;29;20503;-67
2022/09/15 09:58:50;;;;;;;5.72;4.65;;;18.60;81.20;;;;;;4874738;29;20131;-65
2022/09/15 10:01:18;;;;;;;6.80;4.80;;;18.60;81.40;;;;;;4878092;29;20024;-65
2022/09/15 10:03:44;;;;;;;5.70;4.47;;;18.50;81.40;;;;;;4865647;29;20500;-66
2022/09/15 10:06:19;;;;;;;5.20;4.63;;;18.50;81.60;;;;;;4869891;29;20178;-66
2022/09/15 10:09:02;;;;;;;6.18;4.75;;;18.50;81.70;;;;;;4872299;29;20073;-65
2022/09/15 10:11:58;;;;;;;5.70;4.40;;;18.40;82.00;;;;;;4879075;29;20028;-66
2022/09/15 10:14:34;;;;;;;7.13;4.25;;;18.30;82.20;;;;;;4865169;29;20126;-65
2022/09/15 10:17:21;;;;;;;4.93;4.03;;;18.30;82.60;;;;;;4874910;29;20040;-66
2022/09/15 10:19:51;;;;;;;6.45;4.03;;;18.30;82.90;;;;;;4873287;29;20044;-66
2022/09/15 10:22:25;;;;;;;4.88;4.25;;;18.30;83.30;;;;;;4869830;29;20032;-66
2022/09/15 10:24:52;;;;;;;4.93;4.05;;;18.30;83.40;;;;;;4877674;29;20516;-65
2022/09/15 10:27:25;;;;;;;5.50;4.70;;;18.30;83.50;;;;;;4879652;29;20064;-66
2022/09/15 10:29:50;;;;;;;4.97;4.30;;;18.30;84.40;;;;;;4880379;29;20598;-66
2022/09/15 10:32:30;;;;;;;5.03;4.35;;;18.30;83.80;;;;;;4881143;29;20032;-66
2022/09/15 10:35:23;;;;;;;5.50;4.50;;;18.30;83.90;;;;;;4879133;29;20024;-66
2022/09/15 10:38:11;;;;;;;5.47;4.75;;;18.30;83.80;;;;;;4870809;29;20044;-66
2022/09/15 10:40:37;;;;;;;5.97;5.00;;;18.40;84.10;;;;;;4878856;29;20464;-66
2022/09/15 10:43:28;;;;;;;5.47;4.82;;;18.40;84.30;;;;;;4870262;29;20036;-66
2022/09/15 10:46:19;;;;;;;5.13;4.28;;;18.40;84.30;;;;;;4875065;29;20074;-67
2022/09/15 10:48:54;;;;;;;4.80;4.10;;;18.40;84.10;;;;;;4881872;29;20088;-65
2022/09/15 10:51:41;;;;;;;4.25;3.65;;;18.40;84.10;;;;;;4886186;29;20419;-66
2022/09/15 10:54:37;;;;;;;4.53;4.05;;;18.40;84.10;;;;;;4887439;29;20033;-67
2022/09/15 10:57:34;;;;;;;4.15;3.70;;;18.40;84.20;;;;;;4873660;29;20117;-66
2022/09/15 11:00:16;;;;;;;4.57;4.03;;;18.30;84.20;;;;;;4880745;29;20151;-66
2022/09/15 11:03:28;;;;;;;4.63;3.65;;;18.30;84.60;;;;;;4875553;29;20029;-66
2022/09/15 11:06:21;;;;;;;4.22;3.67;;;18.30;84.70;;;;;;4877822;29;20496;-66
2022/09/15 11:09:14;;;;;;;5.70;4.15;;;18.20;84.90;;;;;;4882484;29;20486;-67
2022/09/15 11:12:01;;;;;;;4.75;3.92;;;18.20;85.10;;;;;;4893708;29;20036;-66
2022/09/15 11:14:50;;;;;;;4.40;3.75;;;18.20;85.60;;;;;;4882668;29;20073;-66
2022/09/15 11:17:34;;;;;;;4.10;3.70;;;18.20;86.00;;;;;;4876263;29;20139;-66
2022/09/15 11:20:03;;;;;;;4.50;3.80;;;18.20;86.30;;;;;;4881082;29;24530;-67
2022/09/15 11:22:42;;;;;;;4.07;3.47;;;18.20;86.70;;;;;;4864480;29;20037;-66
2022/09/15 11:25:21;;;;;;;4.90;3.97;;;18.20;86.80;;;;;;4885351;29;20029;-66
2022/09/15 11:28:11;;;;;;;5.03;3.92;;;18.30;87.00;;;;;;4888393;29;20043;-65
2022/09/15 11:30:45;;;;;;;3.85;3.50;;;18.30;86.70;;;;;;4883945;29;20136;-65
2022/09/15 11:33:20;;;;;;;4.68;3.85;;;18.30;86.90;;;;;;4888276;29;20401;-66
2022/09/15 11:35:55;;;;;;;5.63;4.53;;;18.40;87.00;;;;;;4880614;29;20040;-66
2022/09/15 11:39:02;;;;;;;4.25;3.70;;;18.40;87.10;;;;;;4882440;29;20059;-67
2022/09/15 11:41:40;;;;;;;4.13;3.50;;;18.40;86.80;;;;;;4875186;29;20067;-66
2022/09/15 11:44:37;;;;;;;4.50;3.83;;;18.40;87.00;;;;;;4883490;29;20971;-65
2022/09/15 11:47:32;;;;;;;5.90;4.20;;;18.50;86.80;;;;;;4866674;29;20059;-68
2022/09/15 11:50:19;;;;;;;4.70;4.07;;;18.50;87.00;;;;;;4872655;29;20075;-67
2022/09/15 11:53:20;;;;;;;4.65;3.88;;;18.50;86.70;;;;;;4886854;29;20036;-64
2022/09/15 11:56:20;;;;;;;5.03;4.28;;;18.50;86.70;;;;;;4893109;29;20127;-64
2022/09/15 11:59:04;;;;;;;4.10;3.70;;;18.50;86.70;;;;;;4889929;29;20044;-64
2022/09/15 12:01:55;;;;;;;4.80;4.20;;;18.40;87.00;;;;;;4885890;29;21180;-64
2022/09/15 12:04:28;;;;;;;5.13;4.18;;;18.40;87.40;;;;;;4877584;29;20039;-64
2022/09/15 12:07:01;;;;;;;5.15;4.45;;;18.40;87.60;;;;;;4893141;29;20132;-63
2022/09/15 12:09:27;;;;;;;5.97;5.03;;;18.40;87.70;;;;;;4891319;29;20051;-64
2022/09/15 12:12:01;;;;;;;6.68;5.18;;;18.40;88.00;;;;;;4887975;29;20036;-64
2022/09/15 12:14:28;;;;;;;6.43;5.30;;;18.40;88.00;;;;;;4888313;29;20952;-64
2022/09/15 12:16:56;;;;;;;5.60;5.05;;;18.40;88.30;;;;;;4891447;29;20568;-64
2022/09/15 12:19:53;;;;;;;7.20;5.50;;;18.40;88.50;;;;;;4884012;29;20297;-64
2022/09/15 12:22:33;;;;;;;6.97;5.93;;;18.40;88.30;;;;;;4878751;29;20032;-64
2022/09/15 12:25:24;;;;;;;6.20;5.47;;;18.40;88.60;;;;;;4893593;29;20066;-65
2022/09/15 12:28:21;;;;;;;6.68;5.30;;;18.50;88.70;;;;;;4891849;29;20167;-64
2022/09/15 12:30:48;;;;;;;8.02;5.70;;;18.50;88.50;;;;;;4886327;29;20040;-66
2022/09/15 12:34:24;;;;;;;6.85;5.20;;;18.50;88.70;;;;;;4884535;29;20768;-66
2022/09/15 12:37:05;;;;;;;4.75;4.30;;;18.50;88.60;;;;;;4828942;29;20037;-65
2022/09/15 12:39:37;;;;;;;;;;;18.50;89.00;;;;;;4824087;29;20055;-66
2022/09/15 12:42:11;;;;;;;;;;;18.50;88.90;;;;;;4872264;29;19915;-66
2022/09/15 12:44:43;;;;;;;6.38;4.15;;;18.50;89.10;;;;;;4884767;29;19923;-69
2022/09/15 12:47:20;;;;;;;5.97;4.43;;;18.60;89.30;;;;;;4882747;29;20028;-67
2022/09/15 12:49:49;;;;;;;6.25;4.65;;;18.70;89.50;;;;;;4887428;29;20028;-66
2022/09/15 12:52:16;;;;;;;6.35;4.82;;;18.70;89.70;;;;;;4890321;29;20600;-65
2022/09/15 12:54:48;;;;;;;5.63;4.55;;;18.80;89.80;;;;;;4894083;29;20028;-65
2022/09/15 12:57:35;;;;;;;5.45;4.88;;;18.80;89.80;;;;;;4887228;29;20028;-65
2022/09/15 13:00:19;;;;;;;6.88;5.60;;;18.90;89.60;;;;;;4886937;29;20036;-65
2022/09/15 13:02:49;;;;;;;6.22;4.85;;;19.00;89.70;;;;;;4886598;29;20778;-66
2022/09/15 13:05:40;;;;;;;7.07;5.35;;;19.00;89.70;;;;;;4865927;29;20032;-66
2022/09/15 13:08:33;;;;;;;9.35;5.82;;;19.10;89.40;;;;;;4884893;29;20074;-66
2022/09/15 13:11:44;;;;;;;8.60;5.95;;;19.20;89.60;;;;;;4887785;29;20436;-67
2022/09/15 13:14:27;;;;;;;9.73;6.25;;;19.20;89.10;;;;;;4884044;29;20079;-64
2022/09/15 13:17:15;;;;;;;9.52;6.25;;;19.30;89.10;;;;;;4886581;29;20044;-65
2022/09/15 13:19:46;;;;;;;10.98;6.68;;;19.30;89.30;;;;;;4891011;29;20036;-65